Terminal Aerodrome Forecast
Issued by NWS

Home | Current Version | Previous Version | Text Only | Print | Product List | Glossary On
Versions: 1 2 3 4 5 6 7 8 9 10 11 12 13 14 15 16 17 18 19 20 21 22 23 24 25 26 27 28 29 30 31 32 33 34 35 36 37 38 39 40 41 42 43 44 45 46
000
FTAK31 PANC 022106 AAB
TAFACD
TAF AMD
PACD 022106Z 0221/0318 27013KT 6SM -SHRA BR SCT005 OVC015
      TEMPO 0221/0224 2SM -SHRA BR BKN005
     FM030000 25015G22KT P6SM -SHRA SCT015 OVC025
     FM030600 19008KT P6SM OVC025=

USA.gov is the U.S. government's official web portal to all federal, state and local government web resources and services.